sensor_id;sensor_type;location;lat;lon;timestamp;P1;durP1;ratioP1;P2;durP2;ratioP2
22955;SDS011;40888;48.148;11.526;2022-12-20T00:01:12;10.53;;;9.43;;
22955;SDS011;40888;48.148;11.526;2022-12-20T00:03:38;10.10;;;8.90;;
22955;SDS011;40888;48.148;11.526;2022-12-20T00:06:05;9.73;;;8.73;;
22955;SDS011;40888;48.148;11.526;2022-12-20T00:08:31;9.63;;;8.40;;
22955;SDS011;40888;48.148;11.526;2022-12-20T00:11:00;9.23;;;8.20;;
22955;SDS011;40888;48.148;11.526;2022-12-20T00:13:26;9.80;;;8.50;;
22955;SDS011;40888;48.148;11.526;2022-12-20T00:16:03;8.10;;;7.30;;
22955;SDS011;40888;48.148;11.526;2022-12-20T00:18:29;9.20;;;8.13;;
22955;SDS011;40888;48.148;11.526;2022-12-20T00:20:59;9.17;;;7.60;;
22955;SDS011;40888;48.148;11.526;2022-12-20T00:23:25;9.13;;;7.67;;
22955;SDS011;40888;48.148;11.526;2022-12-20T00:25:51;9.20;;;8.20;;
22955;SDS011;40888;48.148;11.526;2022-12-20T00:28:17;9.40;;;8.40;;
22955;SDS011;40888;48.148;11.526;2022-12-20T00:30:43;8.80;;;7.90;;
22955;SDS011;40888;48.148;11.526;2022-12-20T00:33:10;8.90;;;7.80;;
22955;SDS011;40888;48.148;11.526;2022-12-20T00:35:40;9.27;;;7.70;;
22955;SDS011;40888;48.148;11.526;2022-12-20T00:38:06;9.40;;;8.40;;
22955;SDS011;40888;48.148;11.526;2022-12-20T00:40:33;9.17;;;8.00;;
22955;SDS011;40888;48.148;11.526;2022-12-20T00:42:59;8.47;;;7.63;;
22955;SDS011;40888;48.148;11.526;2022-12-20T00:45:25;9.50;;;7.40;;
22955;SDS011;40888;48.148;11.526;2022-12-20T00:47:51;8.70;;;7.80;;
22955;SDS011;40888;48.148;11.526;2022-12-20T00:50:17;10.67;;;8.17;;
22955;SDS011;40888;48.148;11.526;2022-12-20T00:52:43;8.73;;;7.83;;
22955;SDS011;40888;48.148;11.526;2022-12-20T00:55:09;9.73;;;8.23;;
22955;SDS011;40888;48.148;11.526;2022-12-20T00:57:35;8.90;;;7.70;;
22955;SDS011;40888;48.148;11.526;2022-12-20T01:00:02;9.27;;;8.37;;
22955;SDS011;40888;48.148;11.526;2022-12-20T01:02:28;9.87;;;8.87;;
22955;SDS011;40888;48.148;11.526;2022-12-20T01:04:54;10.23;;;8.93;;
22955;SDS011;40888;48.148;11.526;2022-12-20T01:07:21;8.33;;;7.53;;
22955;SDS011;40888;48.148;11.526;2022-12-20T01:09:47;9.53;;;7.97;;
22955;SDS011;40888;48.148;11.526;2022-12-20T01:12:13;9.77;;;8.13;;
22955;SDS011;40888;48.148;11.526;2022-12-20T01:14:39;8.30;;;7.47;;
22955;SDS011;40888;48.148;11.526;2022-12-20T01:17:06;8.57;;;7.70;;
22955;SDS011;40888;48.148;11.526;2022-12-20T01:19:32;9.43;;;8.40;;
22955;SDS011;40888;48.148;11.526;2022-12-20T01:21:58;9.30;;;8.07;;
22955;SDS011;40888;48.148;11.526;2022-12-20T01:24:24;10.70;;;7.73;;
22955;SDS011;40888;48.148;11.526;2022-12-20T01:26:50;10.10;;;8.87;;
22955;SDS011;40888;48.148;11.526;2022-12-20T01:29:16;9.13;;;7.97;;
22955;SDS011;40888;48.148;11.526;2022-12-20T01:31:43;9.70;;;8.33;;
22955;SDS011;40888;48.148;11.526;2022-12-20T01:34:09;8.07;;;7.20;;
22955;SDS011;40888;48.148;11.526;2022-12-20T01:36:36;8.53;;;7.10;;
22955;SDS011;40888;48.148;11.526;2022-12-20T01:39:03;11.67;;;7.00;;
22955;SDS011;40888;48.148;11.526;2022-12-20T01:41:30;7.03;;;6.33;;
22955;SDS011;40888;48.148;11.526;2022-12-20T01:43:58;7.30;;;6.57;;
22955;SDS011;40888;48.148;11.526;2022-12-20T01:46:26;7.50;;;6.37;;
22955;SDS011;40888;48.148;11.526;2022-12-20T01:49:07;6.77;;;6.07;;
22955;SDS011;40888;48.148;11.526;2022-12-20T01:51:43;6.63;;;5.90;;
22955;SDS011;40888;48.148;11.526;2022-12-20T01:54:11;6.83;;;5.57;;
22955;SDS011;40888;48.148;11.526;2022-12-20T01:56:37;5.37;;;4.60;;
22955;SDS011;40888;48.148;11.526;2022-12-20T01:59:05;5.50;;;4.93;;
22955;SDS011;40888;48.148;11.526;2022-12-20T02:01:32;6.93;;;5.00;;
22955;SDS011;40888;48.148;11.526;2022-12-20T02:03:58;5.83;;;4.50;;
22955;SDS011;40888;48.148;11.526;2022-12-20T02:06:25;4.80;;;4.40;;
22955;SDS011;40888;48.148;11.526;2022-12-20T02:08:52;6.03;;;4.93;;
22955;SDS011;40888;48.148;11.526;2022-12-20T02:13:51;4.57;;;3.97;;
22955;SDS011;40888;48.148;11.526;2022-12-20T02:16:23;5.10;;;4.60;;
22955;SDS011;40888;48.148;11.526;2022-12-20T02:18:52;4.17;;;3.60;;
22955;SDS011;40888;48.148;11.526;2022-12-20T02:21:30;5.37;;;4.43;;
22955;SDS011;40888;48.148;11.526;2022-12-20T02:31:33;4.40;;;4.00;;
22955;SDS011;40888;48.148;11.526;2022-12-20T02:34:02;6.23;;;4.27;;
22955;SDS011;40888;48.148;11.526;2022-12-20T02:36:30;5.17;;;3.90;;
22955;SDS011;40888;48.148;11.526;2022-12-20T02:38:56;4.70;;;3.90;;
22955;SDS011;40888;48.148;11.526;2022-12-20T02:41:23;4.03;;;3.60;;
22955;SDS011;40888;48.148;11.526;2022-12-20T02:43:52;4.27;;;3.60;;
22955;SDS011;40888;48.148;11.526;2022-12-20T02:46:37;4.10;;;3.70;;
22955;SDS011;40888;48.148;11.526;2022-12-20T02:49:06;5.23;;;4.07;;
22955;SDS011;40888;48.148;11.526;2022-12-20T02:51:35;5.13;;;4.07;;
22955;SDS011;40888;48.148;11.526;2022-12-20T02:54:01;4.00;;;3.60;;
22955;SDS011;40888;48.148;11.526;2022-12-20T02:56:32;4.63;;;4.17;;
22955;SDS011;40888;48.148;11.526;2022-12-20T03:01:29;4.33;;;3.73;;
22955;SDS011;40888;48.148;11.526;2022-12-20T03:03:57;7.73;;;4.20;;
22955;SDS011;40888;48.148;11.526;2022-12-20T03:06:23;4.73;;;4.07;;
22955;SDS011;40888;48.148;11.526;2022-12-20T03:08:49;6.40;;;4.30;;
22955;SDS011;40888;48.148;11.526;2022-12-20T03:11:16;4.40;;;3.90;;
22955;SDS011;40888;48.148;11.526;2022-12-20T03:13:42;5.43;;;3.73;;
22955;SDS011;40888;48.148;11.526;2022-12-20T03:16:08;4.73;;;3.83;;
22955;SDS011;40888;48.148;11.526;2022-12-20T03:18:35;5.93;;;4.07;;
22955;SDS011;40888;48.148;11.526;2022-12-20T03:21:01;4.07;;;3.67;;
22955;SDS011;40888;48.148;11.526;2022-12-20T03:23:27;4.03;;;3.63;;
22955;SDS011;40888;48.148;11.526;2022-12-20T03:25:53;4.53;;;3.50;;
22955;SDS011;40888;48.148;11.526;2022-12-20T03:28:20;4.47;;;3.80;;
22955;SDS011;40888;48.148;11.526;2022-12-20T03:30:46;3.60;;;3.30;;
22955;SDS011;40888;48.148;11.526;2022-12-20T03:33:12;3.53;;;3.23;;
22955;SDS011;40888;48.148;11.526;2022-12-20T03:35:38;5.80;;;3.60;;
22955;SDS011;40888;48.148;11.526;2022-12-20T03:38:04;4.37;;;3.97;;
22955;SDS011;40888;48.148;11.526;2022-12-20T03:40:31;4.23;;;3.80;;
22955;SDS011;40888;48.148;11.526;2022-12-20T03:42:57;5.43;;;4.50;;
22955;SDS011;40888;48.148;11.526;2022-12-20T03:45:23;3.83;;;3.43;;
22955;SDS011;40888;48.148;11.526;2022-12-20T03:47:49;4.30;;;3.90;;
22955;SDS011;40888;48.148;11.526;2022-12-20T03:50:15;4.20;;;3.60;;
22955;SDS011;40888;48.148;11.526;2022-12-20T03:52:42;5.93;;;3.80;;
22955;SDS011;40888;48.148;11.526;2022-12-20T03:55:08;4.60;;;3.87;;
22955;SDS011;40888;48.148;11.526;2022-12-20T03:57:36;4.83;;;3.97;;
22955;SDS011;40888;48.148;11.526;2022-12-20T04:00:02;6.63;;;3.70;;
22955;SDS011;40888;48.148;11.526;2022-12-20T04:02:29;5.00;;;3.80;;
22955;SDS011;40888;48.148;11.526;2022-12-20T04:04:55;4.20;;;3.57;;
22955;SDS011;40888;48.148;11.526;2022-12-20T04:07:21;4.17;;;3.53;;
22955;SDS011;40888;48.148;11.526;2022-12-20T04:09:47;4.07;;;3.57;;
22955;SDS011;40888;48.148;11.526;2022-12-20T04:12:13;3.70;;;3.37;;
22955;SDS011;40888;48.148;11.526;2022-12-20T04:14:39;4.03;;;3.63;;
22955;SDS011;40888;48.148;11.526;2022-12-20T04:17:05;3.90;;;3.50;;
22955;SDS011;40888;48.148;11.526;2022-12-20T04:19:32;4.50;;;3.80;;
22955;SDS011;40888;48.148;11.526;2022-12-20T04:21:58;4.20;;;3.80;;
22955;SDS011;40888;48.148;11.526;2022-12-20T04:24:24;4.10;;;3.70;;
22955;SDS011;40888;48.148;11.526;2022-12-20T04:26:51;4.23;;;3.50;;
22955;SDS011;40888;48.148;11.526;2022-12-20T04:29:17;3.53;;;3.23;;
22955;SDS011;40888;48.148;11.526;2022-12-20T04:31:43;3.97;;;3.53;;
22955;SDS011;40888;48.148;11.526;2022-12-20T04:34:09;3.87;;;3.50;;
22955;SDS011;40888;48.148;11.526;2022-12-20T04:36:35;3.60;;;3.30;;
22955;SDS011;40888;48.148;11.526;2022-12-20T04:39:02;3.70;;;3.37;;
22955;SDS011;40888;48.148;11.526;2022-12-20T04:41:28;3.43;;;3.13;;
22955;SDS011;40888;48.148;11.526;2022-12-20T04:43:55;3.90;;;3.53;;
22955;SDS011;40888;48.148;11.526;2022-12-20T04:46:22;3.90;;;3.50;;
22955;SDS011;40888;48.148;11.526;2022-12-20T04:48:48;3.90;;;3.50;;
22955;SDS011;40888;48.148;11.526;2022-12-20T04:51:15;3.70;;;3.33;;
22955;SDS011;40888;48.148;11.526;2022-12-20T04:53:41;4.10;;;3.70;;
22955;SDS011;40888;48.148;11.526;2022-12-20T04:58:40;5.30;;;3.63;;
22955;SDS011;40888;48.148;11.526;2022-12-20T05:01:06;3.97;;;3.57;;
22955;SDS011;40888;48.148;11.526;2022-12-20T05:03:32;5.13;;;3.97;;
22955;SDS011;40888;48.148;11.526;2022-12-20T05:05:58;4.83;;;3.73;;
22955;SDS011;40888;48.148;11.526;2022-12-20T05:08:24;4.33;;;3.80;;
22955;SDS011;40888;48.148;11.526;2022-12-20T05:10:51;4.77;;;3.77;;
22955;SDS011;40888;48.148;11.526;2022-12-20T05:13:17;4.63;;;3.90;;
22955;SDS011;40888;48.148;11.526;2022-12-20T05:15:43;4.20;;;3.80;;
22955;SDS011;40888;48.148;11.526;2022-12-20T05:18:09;5.43;;;4.03;;
22955;SDS011;40888;48.148;11.526;2022-12-20T05:20:35;5.67;;;3.97;;
22955;SDS011;40888;48.148;11.526;2022-12-20T05:23:01;5.23;;;4.00;;
22955;SDS011;40888;48.148;11.526;2022-12-20T05:25:47;5.30;;;4.27;;
22955;SDS011;40888;48.148;11.526;2022-12-20T05:28:34;5.73;;;3.50;;
22955;SDS011;40888;48.148;11.526;2022-12-20T05:31:00;3.77;;;3.43;;
22955;SDS011;40888;48.148;11.526;2022-12-20T05:33:27;5.00;;;3.80;;
22955;SDS011;40888;48.148;11.526;2022-12-20T05:35:53;4.00;;;3.60;;
22955;SDS011;40888;48.148;11.526;2022-12-20T05:38:21;4.37;;;3.97;;
22955;SDS011;40888;48.148;11.526;2022-12-20T05:40:48;3.47;;;3.17;;
22955;SDS011;40888;48.148;11.526;2022-12-20T05:43:15;5.10;;;3.93;;
22955;SDS011;40888;48.148;11.526;2022-12-20T05:45:45;4.93;;;3.77;;
22955;SDS011;40888;48.148;11.526;2022-12-20T05:48:11;3.90;;;3.60;;
22955;SDS011;40888;48.148;11.526;2022-12-20T05:50:37;5.10;;;4.07;;
22955;SDS011;40888;48.148;11.526;2022-12-20T05:53:03;3.83;;;3.43;;
22955;SDS011;40888;48.148;11.526;2022-12-20T05:55:30;4.60;;;3.73;;
22955;SDS011;40888;48.148;11.526;2022-12-20T05:57:56;3.73;;;3.40;;
22955;SDS011;40888;48.148;11.526;2022-12-20T06:00:22;4.47;;;3.80;;
22955;SDS011;40888;48.148;11.526;2022-12-20T06:02:48;4.20;;;3.80;;
22955;SDS011;40888;48.148;11.526;2022-12-20T06:05:14;4.93;;;3.70;;
22955;SDS011;40888;48.148;11.526;2022-12-20T06:07:41;4.40;;;3.80;;
22955;SDS011;40888;48.148;11.526;2022-12-20T06:10:08;4.23;;;3.83;;
22955;SDS011;40888;48.148;11.526;2022-12-20T06:12:35;3.93;;;3.53;;
22955;SDS011;40888;48.148;11.526;2022-12-20T06:15:01;4.30;;;3.90;;
22955;SDS011;40888;48.148;11.526;2022-12-20T06:17:27;3.83;;;3.43;;
22955;SDS011;40888;48.148;11.526;2022-12-20T06:19:53;3.40;;;3.10;;
22955;SDS011;40888;48.148;11.526;2022-12-20T06:22:19;4.80;;;3.70;;
22955;SDS011;40888;48.148;11.526;2022-12-20T06:24:46;6.10;;;3.47;;
22955;SDS011;40888;48.148;11.526;2022-12-20T06:27:12;3.57;;;3.27;;
22955;SDS011;40888;48.148;11.526;2022-12-20T06:29:38;3.90;;;3.50;;
22955;SDS011;40888;48.148;11.526;2022-12-20T06:32:04;5.87;;;3.77;;
22955;SDS011;40888;48.148;11.526;2022-12-20T06:34:31;4.60;;;3.30;;
22955;SDS011;40888;48.148;11.526;2022-12-20T06:36:57;4.23;;;3.40;;
22955;SDS011;40888;48.148;11.526;2022-12-20T06:39:23;3.27;;;2.97;;
22955;SDS011;40888;48.148;11.526;2022-12-20T06:41:49;3.43;;;3.13;;
22955;SDS011;40888;48.148;11.526;2022-12-20T06:44:15;3.30;;;3.00;;
22955;SDS011;40888;48.148;11.526;2022-12-20T06:46:41;4.37;;;3.10;;
22955;SDS011;40888;48.148;11.526;2022-12-20T06:49:08;8.13;;;2.90;;
22955;SDS011;40888;48.148;11.526;2022-12-20T06:51:34;3.37;;;3.03;;
22955;SDS011;40888;48.148;11.526;2022-12-20T06:54:00;3.03;;;2.40;;
22955;SDS011;40888;48.148;11.526;2022-12-20T06:56:27;2.80;;;2.50;;
22955;SDS011;40888;48.148;11.526;2022-12-20T06:58:53;3.57;;;2.40;;
22955;SDS011;40888;48.148;11.526;2022-12-20T07:01:19;3.23;;;2.50;;
22955;SDS011;40888;48.148;11.526;2022-12-20T07:03:45;3.63;;;2.80;;
22955;SDS011;40888;48.148;11.526;2022-12-20T07:06:11;4.80;;;2.60;;
22955;SDS011;40888;48.148;11.526;2022-12-20T07:08:37;2.50;;;2.30;;
22955;SDS011;40888;48.148;11.526;2022-12-20T07:11:07;5.73;;;2.50;;
22955;SDS011;40888;48.148;11.526;2022-12-20T07:13:33;4.60;;;3.40;;
22955;SDS011;40888;48.148;11.526;2022-12-20T07:16:00;3.10;;;2.83;;
22955;SDS011;40888;48.148;11.526;2022-12-20T07:18:27;3.70;;;2.80;;
22955;SDS011;40888;48.148;11.526;2022-12-20T07:20:53;3.93;;;2.80;;
22955;SDS011;40888;48.148;11.526;2022-12-20T07:23:19;2.80;;;2.60;;
22955;SDS011;40888;48.148;11.526;2022-12-20T07:25:52;4.67;;;2.97;;
22955;SDS011;40888;48.148;11.526;2022-12-20T07:28:19;3.33;;;3.03;;
22955;SDS011;40888;48.148;11.526;2022-12-20T07:30:45;5.43;;;3.63;;
22955;SDS011;40888;48.148;11.526;2022-12-20T07:33:11;5.60;;;3.97;;
22955;SDS011;40888;48.148;11.526;2022-12-20T07:35:37;4.73;;;3.80;;
22955;SDS011;40888;48.148;11.526;2022-12-20T07:38:04;8.97;;;4.33;;
22955;SDS011;40888;48.148;11.526;2022-12-20T07:40:30;6.10;;;3.80;;
22955;SDS011;40888;48.148;11.526;2022-12-20T07:42:56;4.57;;;3.77;;
22955;SDS011;40888;48.148;11.526;2022-12-20T07:45:22;8.07;;;3.53;;
22955;SDS011;40888;48.148;11.526;2022-12-20T07:47:49;5.33;;;3.43;;
22955;SDS011;40888;48.148;11.526;2022-12-20T07:50:15;3.87;;;3.17;;
22955;SDS011;40888;48.148;11.526;2022-12-20T07:52:41;4.00;;;2.80;;
22955;SDS011;40888;48.148;11.526;2022-12-20T07:55:08;3.03;;;2.70;;
22955;SDS011;40888;48.148;11.526;2022-12-20T07:57:40;4.77;;;3.43;;
22955;SDS011;40888;48.148;11.526;2022-12-20T08:00:07;4.90;;;3.33;;
22955;SDS011;40888;48.148;11.526;2022-12-20T08:02:34;3.80;;;3.20;;
22955;SDS011;40888;48.148;11.526;2022-12-20T08:05:04;4.17;;;2.70;;
22955;SDS011;40888;48.148;11.526;2022-12-20T08:07:32;5.63;;;3.10;;
22955;SDS011;40888;48.148;11.526;2022-12-20T08:09:59;5.23;;;3.00;;
22955;SDS011;40888;48.148;11.526;2022-12-20T08:12:25;5.67;;;2.93;;
22955;SDS011;40888;48.148;11.526;2022-12-20T08:14:53;3.07;;;2.70;;
22955;SDS011;40888;48.148;11.526;2022-12-20T08:17:20;6.30;;;3.30;;
22955;SDS011;40888;48.148;11.526;2022-12-20T08:19:47;5.17;;;3.47;;
22955;SDS011;40888;48.148;11.526;2022-12-20T08:22:16;4.93;;;3.27;;
22955;SDS011;40888;48.148;11.526;2022-12-20T08:24:43;4.00;;;3.40;;
22955;SDS011;40888;48.148;11.526;2022-12-20T08:27:09;3.17;;;2.87;;
22955;SDS011;40888;48.148;11.526;2022-12-20T08:29:35;4.57;;;2.93;;
22955;SDS011;40888;48.148;11.526;2022-12-20T08:32:01;5.73;;;3.23;;
22955;SDS011;40888;48.148;11.526;2022-12-20T08:34:28;4.13;;;2.63;;
22955;SDS011;40888;48.148;11.526;2022-12-20T08:36:54;4.10;;;3.40;;
22955;SDS011;40888;48.148;11.526;2022-12-20T08:39:20;3.13;;;2.80;;
22955;SDS011;40888;48.148;11.526;2022-12-20T08:41:46;4.47;;;3.30;;
22955;SDS011;40888;48.148;11.526;2022-12-20T08:44:13;5.50;;;3.50;;
22955;SDS011;40888;48.148;11.526;2022-12-20T08:46:39;5.20;;;3.30;;
22955;SDS011;40888;48.148;11.526;2022-12-20T08:49:05;3.40;;;3.10;;
22955;SDS011;40888;48.148;11.526;2022-12-20T08:51:31;4.10;;;3.70;;
22955;SDS011;40888;48.148;11.526;2022-12-20T08:53:57;5.17;;;3.57;;
22955;SDS011;40888;48.148;11.526;2022-12-20T08:56:24;4.33;;;3.30;;
22955;SDS011;40888;48.148;11.526;2022-12-20T08:58:50;5.63;;;3.83;;
22955;SDS011;40888;48.148;11.526;2022-12-20T09:01:16;6.77;;;4.03;;
22955;SDS011;40888;48.148;11.526;2022-12-20T09:03:43;6.87;;;3.70;;
22955;SDS011;40888;48.148;11.526;2022-12-20T09:06:10;6.50;;;3.87;;
22955;SDS011;40888;48.148;11.526;2022-12-20T09:08:37;5.37;;;3.90;;
22955;SDS011;40888;48.148;11.526;2022-12-20T09:11:04;5.90;;;4.20;;
22955;SDS011;40888;48.148;11.526;2022-12-20T09:13:31;7.70;;;4.23;;
22955;SDS011;40888;48.148;11.526;2022-12-20T09:16:01;7.23;;;4.07;;
22955;SDS011;40888;48.148;11.526;2022-12-20T09:18:27;7.77;;;5.10;;
22955;SDS011;40888;48.148;11.526;2022-12-20T09:20:53;8.43;;;5.67;;
22955;SDS011;40888;48.148;11.526;2022-12-20T09:23:19;7.27;;;5.33;;
22955;SDS011;40888;48.148;11.526;2022-12-20T09:25:45;7.70;;;4.60;;
22955;SDS011;40888;48.148;11.526;2022-12-20T09:28:12;6.73;;;4.07;;
22955;SDS011;40888;48.148;11.526;2022-12-20T09:30:38;7.77;;;4.60;;
22955;SDS011;40888;48.148;11.526;2022-12-20T09:33:04;7.70;;;4.40;;
22955;SDS011;40888;48.148;11.526;2022-12-20T09:35:30;7.13;;;4.53;;
22955;SDS011;40888;48.148;11.526;2022-12-20T09:37:57;6.10;;;4.77;;
22955;SDS011;40888;48.148;11.526;2022-12-20T09:40:24;7.60;;;4.37;;
22955;SDS011;40888;48.148;11.526;2022-12-20T09:42:52;6.40;;;4.40;;
22955;SDS011;40888;48.148;11.526;2022-12-20T09:45:20;7.73;;;4.40;;
22955;SDS011;40888;48.148;11.526;2022-12-20T09:47:49;5.40;;;3.90;;
22955;SDS011;40888;48.148;11.526;2022-12-20T09:50:16;4.67;;;4.03;;
22955;SDS011;40888;48.148;11.526;2022-12-20T09:52:46;4.93;;;3.90;;
22955;SDS011;40888;48.148;11.526;2022-12-20T09:57:55;6.10;;;3.90;;
22955;SDS011;40888;48.148;11.526;2022-12-20T10:00:23;4.20;;;3.63;;
22955;SDS011;40888;48.148;11.526;2022-12-20T10:02:49;5.30;;;3.90;;
22955;SDS011;40888;48.148;11.526;2022-12-20T10:05:16;5.73;;;4.07;;
22955;SDS011;40888;48.148;11.526;2022-12-20T10:13:24;10.33;;;4.07;;
22955;SDS011;40888;48.148;11.526;2022-12-20T10:18:36;6.60;;;4.30;;
22955;SDS011;40888;48.148;11.526;2022-12-20T10:21:10;10.90;;;4.70;;
22955;SDS011;40888;48.148;11.526;2022-12-20T10:23:42;5.10;;;4.07;;
22955;SDS011;40888;48.148;11.526;2022-12-20T10:26:11;10.23;;;4.70;;
22955;SDS011;40888;48.148;11.526;2022-12-20T10:28:38;5.77;;;4.40;;
22955;SDS011;40888;48.148;11.526;2022-12-20T10:31:15;4.23;;;3.60;;
22955;SDS011;40888;48.148;11.526;2022-12-20T10:33:41;5.17;;;4.43;;
22955;SDS011;40888;48.148;11.526;2022-12-20T10:38:44;4.83;;;3.70;;
22955;SDS011;40888;48.148;11.526;2022-12-20T10:41:14;5.93;;;4.53;;
22955;SDS011;40888;48.148;11.526;2022-12-20T10:43:42;4.87;;;4.17;;
22955;SDS011;40888;48.148;11.526;2022-12-20T10:46:09;5.63;;;4.43;;
22955;SDS011;40888;48.148;11.526;2022-12-20T10:48:39;6.97;;;4.17;;
22955;SDS011;40888;48.148;11.526;2022-12-20T10:53:35;7.87;;;4.67;;
22955;SDS011;40888;48.148;11.526;2022-12-20T10:59:01;5.33;;;4.20;;
22955;SDS011;40888;48.148;11.526;2022-12-20T11:01:28;7.20;;;4.47;;
22955;SDS011;40888;48.148;11.526;2022-12-20T11:03:56;7.67;;;4.90;;
22955;SDS011;40888;48.148;11.526;2022-12-20T11:06:24;6.13;;;4.47;;
22955;SDS011;40888;48.148;11.526;2022-12-20T11:08:51;6.33;;;4.10;;
22955;SDS011;40888;48.148;11.526;2022-12-20T11:11:18;5.77;;;4.80;;
22955;SDS011;40888;48.148;11.526;2022-12-20T11:13:46;6.40;;;4.67;;
22955;SDS011;40888;48.148;11.526;2022-12-20T11:16:23;6.57;;;4.70;;
22955;SDS011;40888;48.148;11.526;2022-12-20T11:19:12;6.20;;;4.70;;
22955;SDS011;40888;48.148;11.526;2022-12-20T11:21:45;9.70;;;5.20;;
22955;SDS011;40888;48.148;11.526;2022-12-20T11:34:57;8.80;;;5.33;;
22955;SDS011;40888;48.148;11.526;2022-12-20T11:37:26;7.43;;;5.27;;
22955;SDS011;40888;48.148;11.526;2022-12-20T11:52:50;7.07;;;5.30;;
22955;SDS011;40888;48.148;11.526;2022-12-20T11:55:19;7.33;;;4.90;;
22955;SDS011;40888;48.148;11.526;2022-12-20T12:00:20;6.27;;;5.07;;
22955;SDS011;40888;48.148;11.526;2022-12-20T12:02:53;8.17;;;5.10;;
22955;SDS011;40888;48.148;11.526;2022-12-20T12:05:28;7.07;;;4.73;;
22955;SDS011;40888;48.148;11.526;2022-12-20T12:07:58;5.83;;;4.57;;
22955;SDS011;40888;48.148;11.526;2022-12-20T12:10:33;9.27;;;5.57;;
22955;SDS011;40888;48.148;11.526;2022-12-20T12:13:14;6.53;;;5.20;;
22955;SDS011;40888;48.148;11.526;2022-12-20T12:15:50;8.50;;;5.03;;
22955;SDS011;40888;48.148;11.526;2022-12-20T12:18:19;6.07;;;5.03;;
22955;SDS011;40888;48.148;11.526;2022-12-20T12:23:20;8.27;;;6.10;;
22955;SDS011;40888;48.148;11.526;2022-12-20T12:25:47;8.20;;;4.90;;
22955;SDS011;40888;48.148;11.526;2022-12-20T12:28:14;10.23;;;5.57;;
22955;SDS011;40888;48.148;11.526;2022-12-20T12:30:42;9.10;;;5.80;;
22955;SDS011;40888;48.148;11.526;2022-12-20T12:33:11;12.40;;;5.70;;
22955;SDS011;40888;48.148;11.526;2022-12-20T12:38:15;7.57;;;5.33;;
22955;SDS011;40888;48.148;11.526;2022-12-20T12:40:51;10.43;;;5.57;;
22955;SDS011;40888;48.148;11.526;2022-12-20T12:43:43;8.27;;;4.70;;
22955;SDS011;40888;48.148;11.526;2022-12-20T12:46:15;7.17;;;4.93;;
22955;SDS011;40888;48.148;11.526;2022-12-20T12:48:43;7.20;;;5.50;;
22955;SDS011;40888;48.148;11.526;2022-12-20T12:51:11;12.23;;;5.17;;
22955;SDS011;40888;48.148;11.526;2022-12-20T12:53:48;9.93;;;6.00;;
22955;SDS011;40888;48.148;11.526;2022-12-20T13:11:50;8.70;;;5.80;;
22955;SDS011;40888;48.148;11.526;2022-12-20T13:16:43;6.03;;;5.27;;
22955;SDS011;40888;48.148;11.526;2022-12-20T13:19:13;8.70;;;5.93;;
22955;SDS011;40888;48.148;11.526;2022-12-20T13:21:41;9.13;;;5.67;;
22955;SDS011;40888;48.148;11.526;2022-12-20T13:26:52;8.87;;;5.67;;
22955;SDS011;40888;48.148;11.526;2022-12-20T13:29:23;11.33;;;6.20;;
22955;SDS011;40888;48.148;11.526;2022-12-20T13:31:50;10.83;;;6.07;;
22955;SDS011;40888;48.148;11.526;2022-12-20T13:37:01;9.63;;;5.80;;
22955;SDS011;40888;48.148;11.526;2022-12-20T13:42:12;8.17;;;5.43;;
22955;SDS011;40888;48.148;11.526;2022-12-20T13:44:40;8.40;;;6.43;;
22955;SDS011;40888;48.148;11.526;2022-12-20T13:49:52;14.77;;;11.13;;
22955;SDS011;40888;48.148;11.526;2022-12-20T13:54:45;16.80;;;12.77;;
22955;SDS011;40888;48.148;11.526;2022-12-20T13:57:16;26.57;;;17.73;;
22955;SDS011;40888;48.148;11.526;2022-12-20T13:59:50;22.87;;;17.97;;
22955;SDS011;40888;48.148;11.526;2022-12-20T14:02:21;22.47;;;19.43;;
22955;SDS011;40888;48.148;11.526;2022-12-20T14:05:35;29.63;;;20.47;;
22955;SDS011;40888;48.148;11.526;2022-12-20T14:07:35;25.83;;;20.27;;
22955;SDS011;40888;48.148;11.526;2022-12-20T14:10:02;25.00;;;20.43;;
22955;SDS011;40888;48.148;11.526;2022-12-20T14:12:29;27.60;;;20.53;;
22955;SDS011;40888;48.148;11.526;2022-12-20T14:14:55;25.77;;;19.57;;
22955;SDS011;40888;48.148;11.526;2022-12-20T14:17:27;28.07;;;19.30;;
22955;SDS011;40888;48.148;11.526;2022-12-20T14:22:32;25.27;;;18.83;;
22955;SDS011;40888;48.148;11.526;2022-12-20T14:24:59;24.97;;;18.63;;
22955;SDS011;40888;48.148;11.526;2022-12-20T14:27:26;23.57;;;18.17;;
22955;SDS011;40888;48.148;11.526;2022-12-20T14:29:54;23.77;;;19.10;;
22955;SDS011;40888;48.148;11.526;2022-12-20T14:32:20;23.63;;;18.30;;
22955;SDS011;40888;48.148;11.526;2022-12-20T14:34:47;25.83;;;19.40;;
22955;SDS011;40888;48.148;11.526;2022-12-20T14:37:23;26.03;;;18.63;;
22955;SDS011;40888;48.148;11.526;2022-12-20T14:42:26;20.73;;;16.50;;
22955;SDS011;40888;48.148;11.526;2022-12-20T14:45:00;23.73;;;16.37;;
22955;SDS011;40888;48.148;11.526;2022-12-20T14:47:27;17.87;;;14.90;;
22955;SDS011;40888;48.148;11.526;2022-12-20T14:49:54;24.43;;;15.97;;
22955;SDS011;40888;48.148;11.526;2022-12-20T14:52:32;21.93;;;15.77;;
22955;SDS011;40888;48.148;11.526;2022-12-20T14:55:01;21.17;;;16.20;;
22955;SDS011;40888;48.148;11.526;2022-12-20T15:02:41;25.17;;;15.47;;
22955;SDS011;40888;48.148;11.526;2022-12-20T15:07:55;24.27;;;17.00;;
22955;SDS011;40888;48.148;11.526;2022-12-20T15:10:34;23.00;;;16.53;;
22955;SDS011;40888;48.148;11.526;2022-12-20T15:13:00;20.93;;;15.93;;
22955;SDS011;40888;48.148;11.526;2022-12-20T15:15:26;22.30;;;16.30;;
22955;SDS011;40888;48.148;11.526;2022-12-20T15:17:52;20.23;;;15.73;;
22955;SDS011;40888;48.148;11.526;2022-12-20T15:20:18;22.43;;;15.97;;
22955;SDS011;40888;48.148;11.526;2022-12-20T15:22:45;21.83;;;16.03;;
22955;SDS011;40888;48.148;11.526;2022-12-20T15:25:15;20.93;;;16.20;;
22955;SDS011;40888;48.148;11.526;2022-12-20T15:27:42;25.10;;;15.67;;
22955;SDS011;40888;48.148;11.526;2022-12-20T15:30:11;19.63;;;15.47;;
22955;SDS011;40888;48.148;11.526;2022-12-20T15:32:38;18.33;;;14.73;;
22955;SDS011;40888;48.148;11.526;2022-12-20T15:35:04;20.80;;;14.57;;
22955;SDS011;40888;48.148;11.526;2022-12-20T15:37:31;18.73;;;14.63;;
22955;SDS011;40888;48.148;11.526;2022-12-20T15:39:57;19.20;;;13.47;;
22955;SDS011;40888;48.148;11.526;2022-12-20T15:42:23;16.87;;;13.33;;
22955;SDS011;40888;48.148;11.526;2022-12-20T15:44:49;16.57;;;12.90;;
22955;SDS011;40888;48.148;11.526;2022-12-20T15:47:15;16.50;;;13.23;;
22955;SDS011;40888;48.148;11.526;2022-12-20T15:49:42;18.67;;;13.23;;
22955;SDS011;40888;48.148;11.526;2022-12-20T15:52:09;17.73;;;12.80;;
22955;SDS011;40888;48.148;11.526;2022-12-20T15:54:41;15.17;;;12.23;;
22955;SDS011;40888;48.148;11.526;2022-12-20T15:57:08;19.80;;;13.43;;
22955;SDS011;40888;48.148;11.526;2022-12-20T15:59:36;19.03;;;13.60;;
22955;SDS011;40888;48.148;11.526;2022-12-20T16:02:02;15.97;;;12.97;;
22955;SDS011;40888;48.148;11.526;2022-12-20T16:04:28;14.67;;;13.03;;
22955;SDS011;40888;48.148;11.526;2022-12-20T16:06:54;15.63;;;13.40;;
22955;SDS011;40888;48.148;11.526;2022-12-20T16:09:20;15.53;;;13.47;;
22955;SDS011;40888;48.148;11.526;2022-12-20T16:11:49;17.70;;;13.83;;
22955;SDS011;40888;48.148;11.526;2022-12-20T16:14:17;16.40;;;12.73;;
22955;SDS011;40888;48.148;11.526;2022-12-20T16:16:47;15.60;;;12.27;;
22955;SDS011;40888;48.148;11.526;2022-12-20T16:19:14;14.87;;;11.93;;
22955;SDS011;40888;48.148;11.526;2022-12-20T16:21:46;16.17;;;13.30;;
22955;SDS011;40888;48.148;11.526;2022-12-20T16:24:13;17.33;;;12.47;;